sensor_id;sensor_type;location;lat;lon;timestamp;temperature;humidity
12811;DHT22;6470;47.654;7.896;2023-09-08T00:02:12;17.70;99.90
12811;DHT22;6470;47.654;7.896;2023-09-08T00:04:38;17.50;99.90
12811;DHT22;6470;47.654;7.896;2023-09-08T00:07:04;17.70;99.90
12811;DHT22;6470;47.654;7.896;2023-09-08T00:09:29;17.80;99.90
12811;DHT22;6470;47.654;7.896;2023-09-08T00:11:55;17.00;99.90
12811;DHT22;6470;47.654;7.896;2023-09-08T00:14:21;17.30;99.90
12811;DHT22;6470;47.654;7.896;2023-09-08T00:16:47;17.90;99.90
12811;DHT22;6470;47.654;7.896;2023-09-08T00:19:13;16.90;99.90
12811;DHT22;6470;47.654;7.896;2023-09-08T00:21:39;16.40;99.90
12811;DHT22;6470;47.654;7.896;2023-09-08T00:24:05;17.10;99.90
12811;DHT22;6470;47.654;7.896;2023-09-08T00:26:32;17.30;99.90
12811;DHT22;6470;47.654;7.896;2023-09-08T00:28:57;16.90;99.90
12811;DHT22;6470;47.654;7.896;2023-09-08T00:33:49;18.00;99.90
12811;DHT22;6470;47.654;7.896;2023-09-08T00:36:15;17.60;99.90
12811;DHT22;6470;47.654;7.896;2023-09-08T00:38:41;17.00;99.90
12811;DHT22;6470;47.654;7.896;2023-09-08T00:41:07;17.30;99.90
12811;DHT22;6470;47.654;7.896;2023-09-08T00:43:33;16.90;99.90
12811;DHT22;6470;47.654;7.896;2023-09-08T00:45:59;16.50;99.90
12811;DHT22;6470;47.654;7.896;2023-09-08T00:48:26;17.30;99.90
12811;DHT22;6470;47.654;7.896;2023-09-08T00:50:52;16.60;99.90
12811;DHT22;6470;47.654;7.896;2023-09-08T00:53:18;17.00;99.90
12811;DHT22;6470;47.654;7.896;2023-09-08T00:55:45;16.50;99.90
12811;DHT22;6470;47.654;7.896;2023-09-08T00:58:11;16.70;99.90
12811;DHT22;6470;47.654;7.896;2023-09-08T01:00:37;17.30;99.90
12811;DHT22;6470;47.654;7.896;2023-09-08T01:03:03;17.10;99.90
12811;DHT22;6470;47.654;7.896;2023-09-08T01:05:29;16.90;99.90
12811;DHT22;6470;47.654;7.896;2023-09-08T01:07:55;16.60;99.90
12811;DHT22;6470;47.654;7.896;2023-09-08T01:10:23;16.80;99.90
12811;DHT22;6470;47.654;7.896;2023-09-08T01:12:48;17.60;99.90
12811;DHT22;6470;47.654;7.896;2023-09-08T01:15:14;16.50;99.90
12811;DHT22;6470;47.654;7.896;2023-09-08T01:17:40;16.40;99.90
12811;DHT22;6470;47.654;7.896;2023-09-08T01:20:24;16.90;99.90
12811;DHT22;6470;47.654;7.896;2023-09-08T01:25:57;16.70;99.90
12811;DHT22;6470;47.654;7.896;2023-09-08T01:28:25;16.60;99.90
12811;DHT22;6470;47.654;7.896;2023-09-08T01:30:52;16.80;99.90
12811;DHT22;6470;47.654;7.896;2023-09-08T01:33:20;16.20;99.90
12811;DHT22;6470;47.654;7.896;2023-09-08T01:35:48;16.70;99.90
12811;DHT22;6470;47.654;7.896;2023-09-08T01:38:14;16.50;99.90
12811;DHT22;6470;47.654;7.896;2023-09-08T01:40:39;16.90;99.90
12811;DHT22;6470;47.654;7.896;2023-09-08T01:43:05;16.00;99.90
12811;DHT22;6470;47.654;7.896;2023-09-08T01:47:57;16.70;99.90
12811;DHT22;6470;47.654;7.896;2023-09-08T01:50:22;16.70;99.90
12811;DHT22;6470;47.654;7.896;2023-09-08T01:52:50;16.00;99.90
12811;DHT22;6470;47.654;7.896;2023-09-08T01:55:16;16.40;99.90
12811;DHT22;6470;47.654;7.896;2023-09-08T02:00:11;16.50;99.90
12811;DHT22;6470;47.654;7.896;2023-09-08T02:02:37;16.50;99.90
12811;DHT22;6470;47.654;7.896;2023-09-08T02:05:03;16.50;99.90
12811;DHT22;6470;47.654;7.896;2023-09-08T02:07:29;15.90;99.90
12811;DHT22;6470;47.654;7.896;2023-09-08T02:09:55;16.20;99.90
12811;DHT22;6470;47.654;7.896;2023-09-08T02:12:21;16.70;99.90
12811;DHT22;6470;47.654;7.896;2023-09-08T02:14:47;16.30;99.90
12811;DHT22;6470;47.654;7.896;2023-09-08T02:17:12;16.20;99.90
12811;DHT22;6470;47.654;7.896;2023-09-08T02:19:38;16.80;99.90
12811;DHT22;6470;47.654;7.896;2023-09-08T02:22:04;15.90;99.90
12811;DHT22;6470;47.654;7.896;2023-09-08T02:24:30;16.40;99.90
12811;DHT22;6470;47.654;7.896;2023-09-08T02:26:55;16.70;99.90
12811;DHT22;6470;47.654;7.896;2023-09-08T02:29:21;16.60;99.90
12811;DHT22;6470;47.654;7.896;2023-09-08T02:31:48;16.00;99.90
12811;DHT22;6470;47.654;7.896;2023-09-08T02:34:14;16.50;99.90
12811;DHT22;6470;47.654;7.896;2023-09-08T02:36:39;16.40;99.90
12811;DHT22;6470;47.654;7.896;2023-09-08T02:39:05;16.30;99.90
12811;DHT22;6470;47.654;7.896;2023-09-08T02:41:32;15.90;99.90
12811;DHT22;6470;47.654;7.896;2023-09-08T02:43:58;16.00;99.90
12811;DHT22;6470;47.654;7.896;2023-09-08T02:46:24;16.30;99.90
12811;DHT22;6470;47.654;7.896;2023-09-08T02:48:50;16.40;99.90
12811;DHT22;6470;47.654;7.896;2023-09-08T02:51:16;16.40;99.90
12811;DHT22;6470;47.654;7.896;2023-09-08T02:53:42;15.90;99.90
12811;DHT22;6470;47.654;7.896;2023-09-08T02:56:07;16.20;99.90
12811;DHT22;6470;47.654;7.896;2023-09-08T02:58:35;16.20;99.90
12811;DHT22;6470;47.654;7.896;2023-09-08T03:01:14;15.30;99.90
12811;DHT22;6470;47.654;7.896;2023-09-08T03:03:41;16.50;99.90
12811;DHT22;6470;47.654;7.896;2023-09-08T03:06:08;16.20;99.90
12811;DHT22;6470;47.654;7.896;2023-09-08T03:11:02;15.40;99.90
12811;DHT22;6470;47.654;7.896;2023-09-08T03:13:28;15.70;99.90
12811;DHT22;6470;47.654;7.896;2023-09-08T03:15:55;16.50;99.90
12811;DHT22;6470;47.654;7.896;2023-09-08T03:20:51;16.30;99.90
12811;DHT22;6470;47.654;7.896;2023-09-08T03:23:17;16.40;99.90
12811;DHT22;6470;47.654;7.896;2023-09-08T03:25:43;16.00;99.90
12811;DHT22;6470;47.654;7.896;2023-09-08T03:28:09;16.30;99.90
12811;DHT22;6470;47.654;7.896;2023-09-08T03:30:35;16.00;99.90
12811;DHT22;6470;47.654;7.896;2023-09-08T03:33:00;16.10;99.90
12811;DHT22;6470;47.654;7.896;2023-09-08T03:35:26;15.30;99.90
12811;DHT22;6470;47.654;7.896;2023-09-08T03:37:52;15.90;99.90
12811;DHT22;6470;47.654;7.896;2023-09-08T03:40:17;13.30;99.90
12811;DHT22;6470;47.654;7.896;2023-09-08T03:42:43;16.00;99.90
12811;DHT22;6470;47.654;7.896;2023-09-08T03:45:09;15.90;99.90
12811;DHT22;6470;47.654;7.896;2023-09-08T03:52:27;16.10;99.90
12811;DHT22;6470;47.654;7.896;2023-09-08T03:54:53;15.90;99.90
12811;DHT22;6470;47.654;7.896;2023-09-08T03:57:18;16.20;99.90
12811;DHT22;6470;47.654;7.896;2023-09-08T03:59:44;15.30;99.90
12811;DHT22;6470;47.654;7.896;2023-09-08T04:02:10;15.50;99.90
12811;DHT22;6470;47.654;7.896;2023-09-08T04:04:35;15.30;99.90
12811;DHT22;6470;47.654;7.896;2023-09-08T04:07:01;15.90;99.90
12811;DHT22;6470;47.654;7.896;2023-09-08T04:09:27;16.10;99.90
12811;DHT22;6470;47.654;7.896;2023-09-08T04:14:21;16.40;99.90
12811;DHT22;6470;47.654;7.896;2023-09-08T04:16:49;16.00;99.90
12811;DHT22;6470;47.654;7.896;2023-09-08T04:19:14;16.10;99.90
12811;DHT22;6470;47.654;7.896;2023-09-08T04:21:41;15.60;99.90
12811;DHT22;6470;47.654;7.896;2023-09-08T04:24:07;16.30;99.90
12811;DHT22;6470;47.654;7.896;2023-09-08T04:26:32;16.40;99.90
12811;DHT22;6470;47.654;7.896;2023-09-08T04:28:58;16.50;99.90
12811;DHT22;6470;47.654;7.896;2023-09-08T04:31:24;15.90;99.90
12811;DHT22;6470;47.654;7.896;2023-09-08T04:36:15;16.50;99.90
12811;DHT22;6470;47.654;7.896;2023-09-08T04:38:41;15.90;99.90
12811;DHT22;6470;47.654;7.896;2023-09-08T04:41:07;15.60;99.90
12811;DHT22;6470;47.654;7.896;2023-09-08T04:43:32;16.40;99.90
12811;DHT22;6470;47.654;7.896;2023-09-08T04:45:58;15.90;99.90
12811;DHT22;6470;47.654;7.896;2023-09-08T04:48:24;16.00;99.90
12811;DHT22;6470;47.654;7.896;2023-09-08T04:50:49;16.10;99.90
12811;DHT22;6470;47.654;7.896;2023-09-08T04:53:16;16.30;99.90
12811;DHT22;6470;47.654;7.896;2023-09-08T04:55:43;15.70;99.90
12811;DHT22;6470;47.654;7.896;2023-09-08T04:58:08;15.70;99.90
12811;DHT22;6470;47.654;7.896;2023-09-08T05:00:34;16.40;99.90
12811;DHT22;6470;47.654;7.896;2023-09-08T05:03:00;16.50;99.90
12811;DHT22;6470;47.654;7.896;2023-09-08T05:05:25;16.20;99.90
12811;DHT22;6470;47.654;7.896;2023-09-08T05:07:51;16.10;99.90
12811;DHT22;6470;47.654;7.896;2023-09-08T05:12:47;16.10;99.90
12811;DHT22;6470;47.654;7.896;2023-09-08T05:15:13;16.00;99.90
12811;DHT22;6470;47.654;7.896;2023-09-08T05:17:41;16.00;99.90
12811;DHT22;6470;47.654;7.896;2023-09-08T05:20:07;15.70;99.90
12811;DHT22;6470;47.654;7.896;2023-09-08T05:27:25;15.90;99.90
12811;DHT22;6470;47.654;7.896;2023-09-08T05:32:16;16.20;99.90
12811;DHT22;6470;47.654;7.896;2023-09-08T05:34:42;16.30;99.90
12811;DHT22;6470;47.654;7.896;2023-09-08T05:37:08;16.40;99.90
12811;DHT22;6470;47.654;7.896;2023-09-08T05:39:34;13.40;99.90
12811;DHT22;6470;47.654;7.896;2023-09-08T05:46:52;16.60;99.90
12811;DHT22;6470;47.654;7.896;2023-09-08T05:54:10;16.50;99.90
12811;DHT22;6470;47.654;7.896;2023-09-08T05:56:37;13.60;99.90
12811;DHT22;6470;47.654;7.896;2023-09-08T05:59:03;15.80;99.90
12811;DHT22;6470;47.654;7.896;2023-09-08T06:01:31;16.80;99.90
12811;DHT22;6470;47.654;7.896;2023-09-08T06:03:57;16.90;99.90
12811;DHT22;6470;47.654;7.896;2023-09-08T06:06:22;16.50;99.90
12811;DHT22;6470;47.654;7.896;2023-09-08T06:08:48;17.80;99.90
12811;DHT22;6470;47.654;7.896;2023-09-08T06:11:14;17.20;99.90
12811;DHT22;6470;47.654;7.896;2023-09-08T06:13:40;17.40;99.90
12811;DHT22;6470;47.654;7.896;2023-09-08T06:16:06;17.00;99.90
12811;DHT22;6470;47.654;7.896;2023-09-08T06:18:31;18.20;99.90
12811;DHT22;6470;47.654;7.896;2023-09-08T06:20:57;17.30;99.90
12811;DHT22;6470;47.654;7.896;2023-09-08T06:25:49;18.50;99.90
12811;DHT22;6470;47.654;7.896;2023-09-08T06:28:15;19.00;99.90
12811;DHT22;6470;47.654;7.896;2023-09-08T06:33:08;19.60;99.90
12811;DHT22;6470;47.654;7.896;2023-09-08T06:38:00;19.90;99.90
12811;DHT22;6470;47.654;7.896;2023-09-08T06:40:26;19.30;99.90
12811;DHT22;6470;47.654;7.896;2023-09-08T06:42:52;19.20;99.90
12811;DHT22;6470;47.654;7.896;2023-09-08T06:45:18;20.30;99.90
12811;DHT22;6470;47.654;7.896;2023-09-08T06:47:43;20.40;99.90
12811;DHT22;6470;47.654;7.896;2023-09-08T06:50:10;20.50;99.90
12811;DHT22;6470;47.654;7.896;2023-09-08T06:52:35;20.30;99.90
12811;DHT22;6470;47.654;7.896;2023-09-08T06:55:01;20.50;99.90
12811;DHT22;6470;47.654;7.896;2023-09-08T06:57:27;20.10;99.90
12811;DHT22;6470;47.654;7.896;2023-09-08T06:59:52;18.10;99.90
12811;DHT22;6470;47.654;7.896;2023-09-08T07:02:18;20.90;99.90
12811;DHT22;6470;47.654;7.896;2023-09-08T07:04:44;20.90;99.90
12811;DHT22;6470;47.654;7.896;2023-09-08T07:07:09;22.20;99.90
12811;DHT22;6470;47.654;7.896;2023-09-08T07:09:36;22.50;99.90
12811;DHT22;6470;47.654;7.896;2023-09-08T07:12:06;21.50;99.90
12811;DHT22;6470;47.654;7.896;2023-09-08T07:14:32;22.40;99.90
12811;DHT22;6470;47.654;7.896;2023-09-08T07:16:58;22.10;99.90
12811;DHT22;6470;47.654;7.896;2023-09-08T07:19:23;22.50;99.90
12811;DHT22;6470;47.654;7.896;2023-09-08T07:24:15;21.90;99.90
12811;DHT22;6470;47.654;7.896;2023-09-08T07:26:41;22.60;99.90
12811;DHT22;6470;47.654;7.896;2023-09-08T07:31:33;22.50;99.90
12811;DHT22;6470;47.654;7.896;2023-09-08T07:33:58;22.90;99.90
12811;DHT22;6470;47.654;7.896;2023-09-08T07:36:24;22.60;99.90
12811;DHT22;6470;47.654;7.896;2023-09-08T07:38:50;22.90;99.90
12811;DHT22;6470;47.654;7.896;2023-09-08T07:43:41;22.60;99.90
12811;DHT22;6470;47.654;7.896;2023-09-08T07:46:10;23.20;99.90
12811;DHT22;6470;47.654;7.896;2023-09-08T07:48:35;23.20;99.90
12811;DHT22;6470;47.654;7.896;2023-09-08T07:53:27;23.20;99.90
12811;DHT22;6470;47.654;7.896;2023-09-08T07:55:53;23.80;99.90
12811;DHT22;6470;47.654;7.896;2023-09-08T08:03:12;25.00;99.90
12811;DHT22;6470;47.654;7.896;2023-09-08T08:05:38;24.20;99.90
12811;DHT22;6470;47.654;7.896;2023-09-08T08:08:04;24.20;99.90
12811;DHT22;6470;47.654;7.896;2023-09-08T08:10:29;24.60;99.90
12811;DHT22;6470;47.654;7.896;2023-09-08T08:12:55;24.60;99.90
12811;DHT22;6470;47.654;7.896;2023-09-08T08:15:37;25.10;99.90
12811;DHT22;6470;47.654;7.896;2023-09-08T08:18:05;24.70;99.90
12811;DHT22;6470;47.654;7.896;2023-09-08T08:20:31;25.20;99.90
12811;DHT22;6470;47.654;7.896;2023-09-08T08:23:01;26.00;99.90
12811;DHT22;6470;47.654;7.896;2023-09-08T08:25:27;24.90;99.90
12811;DHT22;6470;47.654;7.896;2023-09-08T08:27:53;24.80;99.90
12811;DHT22;6470;47.654;7.896;2023-09-08T08:30:19;26.10;99.90
12811;DHT22;6470;47.654;7.896;2023-09-08T08:32:44;24.80;99.90
12811;DHT22;6470;47.654;7.896;2023-09-08T08:35:11;25.30;99.90
12811;DHT22;6470;47.654;7.896;2023-09-08T08:37:42;25.10;99.90
12811;DHT22;6470;47.654;7.896;2023-09-08T08:40:09;25.40;99.90
12811;DHT22;6470;47.654;7.896;2023-09-08T08:42:37;25.60;99.90
12811;DHT22;6470;47.654;7.896;2023-09-08T08:45:04;25.70;99.90
12811;DHT22;6470;47.654;7.896;2023-09-08T08:47:29;25.20;99.90
12811;DHT22;6470;47.654;7.896;2023-09-08T08:49:57;25.50;99.90
12811;DHT22;6470;47.654;7.896;2023-09-08T08:52:27;26.60;99.90
12811;DHT22;6470;47.654;7.896;2023-09-08T08:54:53;27.00;99.90
12811;DHT22;6470;47.654;7.896;2023-09-08T08:57:20;27.20;99.90
12811;DHT22;6470;47.654;7.896;2023-09-08T08:59:47;26.20;99.90
12811;DHT22;6470;47.654;7.896;2023-09-08T09:02:14;27.00;99.90
12811;DHT22;6470;47.654;7.896;2023-09-08T09:04:41;27.40;99.90
12811;DHT22;6470;47.654;7.896;2023-09-08T09:07:07;27.70;99.90
12811;DHT22;6470;47.654;7.896;2023-09-08T09:09:33;27.30;99.90
12811;DHT22;6470;47.654;7.896;2023-09-08T09:11:59;26.60;99.90
12811;DHT22;6470;47.654;7.896;2023-09-08T09:14:27;26.50;99.90
12811;DHT22;6470;47.654;7.896;2023-09-08T09:16:56;28.30;99.90
12811;DHT22;6470;47.654;7.896;2023-09-08T09:19:22;27.50;99.90
12811;DHT22;6470;47.654;7.896;2023-09-08T09:21:53;27.10;99.90
12811;DHT22;6470;47.654;7.896;2023-09-08T09:24:42;27.90;99.90
12811;DHT22;6470;47.654;7.896;2023-09-08T09:27:10;26.90;99.90
12811;DHT22;6470;47.654;7.896;2023-09-08T09:29:46;26.90;99.90
12811;DHT22;6470;47.654;7.896;2023-09-08T09:32:12;27.00;99.90
12811;DHT22;6470;47.654;7.896;2023-09-08T09:34:52;27.60;99.90
12811;DHT22;6470;47.654;7.896;2023-09-08T09:37:22;27.40;99.90
12811;DHT22;6470;47.654;7.896;2023-09-08T09:39:52;27.90;99.90
12811;DHT22;6470;47.654;7.896;2023-09-08T09:42:19;28.50;99.90
12811;DHT22;6470;47.654;7.896;2023-09-08T09:44:51;27.90;99.90
12811;DHT22;6470;47.654;7.896;2023-09-08T09:47:17;28.60;99.90
12811;DHT22;6470;47.654;7.896;2023-09-08T09:49:47;28.30;99.90
12811;DHT22;6470;47.654;7.896;2023-09-08T09:52:23;28.80;99.90
12811;DHT22;6470;47.654;7.896;2023-09-08T09:54:54;27.90;99.90
12811;DHT22;6470;47.654;7.896;2023-09-08T09:57:22;28.50;99.90
12811;DHT22;6470;47.654;7.896;2023-09-08T09:59:49;28.30;99.90
12811;DHT22;6470;47.654;7.896;2023-09-08T10:02:18;28.10;99.90
12811;DHT22;6470;47.654;7.896;2023-09-08T10:04:50;29.10;99.90
12811;DHT22;6470;47.654;7.896;2023-09-08T10:07:17;29.10;99.90
12811;DHT22;6470;47.654;7.896;2023-09-08T10:09:43;29.20;99.90
12811;DHT22;6470;47.654;7.896;2023-09-08T10:12:09;29.00;99.90
12811;DHT22;6470;47.654;7.896;2023-09-08T10:14:41;28.90;99.90
12811;DHT22;6470;47.654;7.896;2023-09-08T10:17:11;29.60;99.90
12811;DHT22;6470;47.654;7.896;2023-09-08T10:19:38;29.40;99.90
12811;DHT22;6470;47.654;7.896;2023-09-08T10:22:11;29.30;99.90
12811;DHT22;6470;47.654;7.896;2023-09-08T10:24:38;29.90;99.90
12811;DHT22;6470;47.654;7.896;2023-09-08T10:27:10;29.40;99.90
12811;DHT22;6470;47.654;7.896;2023-09-08T10:29:40;29.50;99.90
12811;DHT22;6470;47.654;7.896;2023-09-08T10:32:07;29.30;99.90
12811;DHT22;6470;47.654;7.896;2023-09-08T10:34:35;28.50;99.90
12811;DHT22;6470;47.654;7.896;2023-09-08T10:37:01;29.50;99.90
12811;DHT22;6470;47.654;7.896;2023-09-08T10:39:34;30.50;99.90
12811;DHT22;6470;47.654;7.896;2023-09-08T10:44:56;29.80;99.90
12811;DHT22;6470;47.654;7.896;2023-09-08T10:47:23;30.50;99.90
12811;DHT22;6470;47.654;7.896;2023-09-08T10:49:50;30.00;99.90
12811;DHT22;6470;47.654;7.896;2023-09-08T10:52:21;30.20;99.90
12811;DHT22;6470;47.654;7.896;2023-09-08T10:54:49;29.80;99.90
12811;DHT22;6470;47.654;7.896;2023-09-08T10:57:17;29.40;99.90
12811;DHT22;6470;47.654;7.896;2023-09-08T11:02:38;30.20;99.90
12811;DHT22;6470;47.654;7.896;2023-09-08T11:05:15;30.90;99.90
12811;DHT22;6470;47.654;7.896;2023-09-08T11:07:45;30.90;99.90
12811;DHT22;6470;47.654;7.896;2023-09-08T11:10:12;30.00;99.90
12811;DHT22;6470;47.654;7.896;2023-09-08T11:12:38;30.00;99.90
12811;DHT22;6470;47.654;7.896;2023-09-08T11:15:05;30.50;99.90
12811;DHT22;6470;47.654;7.896;2023-09-08T11:17:33;31.60;99.90
12811;DHT22;6470;47.654;7.896;2023-09-08T11:20:02;30.60;99.90
12811;DHT22;6470;47.654;7.896;2023-09-08T11:22:34;31.80;99.90
12811;DHT22;6470;47.654;7.896;2023-09-08T11:25:01;30.80;99.90
12811;DHT22;6470;47.654;7.896;2023-09-08T11:27:30;31.80;99.90
12811;DHT22;6470;47.654;7.896;2023-09-08T11:29:56;31.30;99.90
12811;DHT22;6470;47.654;7.896;2023-09-08T11:32:23;31.60;99.90
12811;DHT22;6470;47.654;7.896;2023-09-08T11:34:50;30.90;99.90
12811;DHT22;6470;47.654;7.896;2023-09-08T11:37:17;30.80;99.90
12811;DHT22;6470;47.654;7.896;2023-09-08T11:39:45;31.00;99.90
12811;DHT22;6470;47.654;7.896;2023-09-08T11:42:14;30.80;99.90
12811;DHT22;6470;47.654;7.896;2023-09-08T11:44:41;30.70;99.90
12811;DHT22;6470;47.654;7.896;2023-09-08T11:47:09;31.00;99.90
12811;DHT22;6470;47.654;7.896;2023-09-08T11:49:36;31.40;99.90
12811;DHT22;6470;47.654;7.896;2023-09-08T11:52:06;31.50;99.90
12811;DHT22;6470;47.654;7.896;2023-09-08T11:54:34;31.40;99.90
12811;DHT22;6470;47.654;7.896;2023-09-08T11:57:01;30.90;99.90
12811;DHT22;6470;47.654;7.896;2023-09-08T11:59:30;31.40;99.90
12811;DHT22;6470;47.654;7.896;2023-09-08T12:01:56;31.40;99.90
12811;DHT22;6470;47.654;7.896;2023-09-08T12:06:48;31.00;99.90
12811;DHT22;6470;47.654;7.896;2023-09-08T12:09:15;31.90;99.90
12811;DHT22;6470;47.654;7.896;2023-09-08T12:11:42;31.30;99.90
12811;DHT22;6470;47.654;7.896;2023-09-08T12:14:12;31.40;99.90
12811;DHT22;6470;47.654;7.896;2023-09-08T12:16:38;30.60;99.90
12811;DHT22;6470;47.654;7.896;2023-09-08T12:19:04;30.80;99.90
12811;DHT22;6470;47.654;7.896;2023-09-08T12:21:29;32.00;99.90
12811;DHT22;6470;47.654;7.896;2023-09-08T12:23:57;32.00;99.90
12811;DHT22;6470;47.654;7.896;2023-09-08T12:26:26;30.80;99.90
12811;DHT22;6470;47.654;7.896;2023-09-08T12:31:18;31.70;99.90
12811;DHT22;6470;47.654;7.896;2023-09-08T12:33:44;32.20;99.90
12811;DHT22;6470;47.654;7.896;2023-09-08T12:36:15;31.50;99.90
12811;DHT22;6470;47.654;7.896;2023-09-08T12:38:41;31.50;99.90
12811;DHT22;6470;47.654;7.896;2023-09-08T12:41:12;31.70;99.90
12811;DHT22;6470;47.654;7.896;2023-09-08T12:46:03;31.70;99.90
12811;DHT22;6470;47.654;7.896;2023-09-08T12:48:29;31.90;99.90
12811;DHT22;6470;47.654;7.896;2023-09-08T12:50:54;30.90;99.90
12811;DHT22;6470;47.654;7.896;2023-09-08T12:53:20;32.40;99.90
12811;DHT22;6470;47.654;7.896;2023-09-08T12:55:48;31.90;99.90
12811;DHT22;6470;47.654;7.896;2023-09-08T12:58:15;31.90;99.90
12811;DHT22;6470;47.654;7.896;2023-09-08T13:00:40;31.70;99.90
12811;DHT22;6470;47.654;7.896;2023-09-08T13:03:06;31.90;99.90
12811;DHT22;6470;47.654;7.896;2023-09-08T13:05:32;32.60;99.90
12811;DHT22;6470;47.654;7.896;2023-09-08T13:07:57;31.10;99.90
12811;DHT22;6470;47.654;7.896;2023-09-08T13:10:23;31.50;99.90
12811;DHT22;6470;47.654;7.896;2023-09-08T13:12:49;31.20;99.90
12811;DHT22;6470;47.654;7.896;2023-09-08T13:15:15;32.10;99.90
12811;DHT22;6470;47.654;7.896;2023-09-08T13:17:40;32.00;99.90
12811;DHT22;6470;47.654;7.896;2023-09-08T13:20:07;31.80;99.90
12811;DHT22;6470;47.654;7.896;2023-09-08T13:22:33;31.40;99.90
12811;DHT22;6470;47.654;7.896;2023-09-08T13:24:59;31.80;99.90
12811;DHT22;6470;47.654;7.896;2023-09-08T13:27:25;32.40;99.90
12811;DHT22;6470;47.654;7.896;2023-09-08T13:29:53;32.40;99.90
12811;DHT22;6470;47.654;7.896;2023-09-08T13:32:19;32.10;99.90
12811;DHT22;6470;47.654;7.896;2023-09-08T13:34:45;30.30;99.90
12811;DHT22;6470;47.654;7.896;2023-09-08T13:37:13;31.50;99.90
12811;DHT22;6470;47.654;7.896;2023-09-08T13:39:39;30.50;99.90
12811;DHT22;6470;47.654;7.896;2023-09-08T13:42:05;32.00;99.90
12811;DHT22;6470;47.654;7.896;2023-09-08T13:44:30;31.70;99.90
12811;DHT22;6470;47.654;7.896;2023-09-08T13:46:56;31.90;99.90
12811;DHT22;6470;47.654;7.896;2023-09-08T13:49:22;31.90;99.90
12811;DHT22;6470;47.654;7.896;2023-09-08T13:51:48;31.90;99.90
12811;DHT22;6470;47.654;7.896;2023-09-08T13:54:16;31.90;99.90
12811;DHT22;6470;47.654;7.896;2023-09-08T13:56:42;31.70;99.90
12811;DHT22;6470;47.654;7.896;2023-09-08T13:59:08;31.00;99.90
12811;DHT22;6470;47.654;7.896;2023-09-08T14:01:35;31.60;99.90
12811;DHT22;6470;47.654;7.896;2023-09-08T14:04:01;31.10;99.90
12811;DHT22;6470;47.654;7.896;2023-09-08T14:06:27;31.40;99.90
12811;DHT22;6470;47.654;7.896;2023-09-08T14:08:53;31.80;99.90
12811;DHT22;6470;47.654;7.896;2023-09-08T14:11:19;32.10;99.90
12811;DHT22;6470;47.654;7.896;2023-09-08T14:13:44;32.80;99.90
12811;DHT22;6470;47.654;7.896;2023-09-08T14:16:13;31.70;99.90
12811;DHT22;6470;47.654;7.896;2023-09-08T14:18:39;32.40;99.90
12811;DHT22;6470;47.654;7.896;2023-09-08T14:21:05;33.00;99.90
12811;DHT22;6470;47.654;7.896;2023-09-08T14:25:59;32.10;99.90
12811;DHT22;6470;47.654;7.896;2023-09-08T14:28:25;32.20;99.90
12811;DHT22;6470;47.654;7.896;2023-09-08T14:30:52;32.70;99.90
12811;DHT22;6470;47.654;7.896;2023-09-08T14:33:18;32.90;99.90
12811;DHT22;6470;47.654;7.896;2023-09-08T14:35:44;33.10;99.90
12811;DHT22;6470;47.654;7.896;2023-09-08T14:38:12;32.50;99.90
12811;DHT22;6470;47.654;7.896;2023-09-08T14:40:38;32.40;99.90
12811;DHT22;6470;47.654;7.896;2023-09-08T14:43:04;31.90;99.90
12811;DHT22;6470;47.654;7.896;2023-09-08T14:45:30;32.80;99.90
12811;DHT22;6470;47.654;7.896;2023-09-08T14:47:55;32.40;99.90
12811;DHT22;6470;47.654;7.896;2023-09-08T14:50:21;33.20;99.90
12811;DHT22;6470;47.654;7.896;2023-09-08T14:52:46;33.20;99.90
12811;DHT22;6470;47.654;7.896;2023-09-08T14:55:12;30.50;99.90
12811;DHT22;6470;47.654;7.896;2023-09-08T14:57:38;31.20;99.90
12811;DHT22;6470;47.654;7.896;2023-09-08T15:00:04;31.20;99.90
12811;DHT22;6470;47.654;7.896;2023-09-08T15:02:31;31.20;99.90
12811;DHT22;6470;47.654;7.896;2023-09-08T15:04:57;30.90;99.90
12811;DHT22;6470;47.654;7.896;2023-09-08T15:07:22;31.30;99.90
12811;DHT22;6470;47.654;7.896;2023-09-08T15:09:49;31.70;99.90
12811;DHT22;6470;47.654;7.896;2023-09-08T15:12:16;32.20;99.90
12811;DHT22;6470;47.654;7.896;2023-09-08T15:14:42;31.40;99.90
12811;DHT22;6470;47.654;7.896;2023-09-08T15:17:10;31.70;99.90
12811;DHT22;6470;47.654;7.896;2023-09-08T15:19:35;32.00;99.90
12811;DHT22;6470;47.654;7.896;2023-09-08T15:22:01;31.70;99.90
12811;DHT22;6470;47.654;7.896;2023-09-08T15:24:27;31.80;99.90
12811;DHT22;6470;47.654;7.896;2023-09-08T15:26:52;32.30;99.90
12811;DHT22;6470;47.654;7.896;2023-09-08T15:29:18;29.60;99.90
12811;DHT22;6470;47.654;7.896;2023-09-08T15:31:45;31.40;99.90
12811;DHT22;6470;47.654;7.896;2023-09-08T15:34:12;31.90;99.90
12811;DHT22;6470;47.654;7.896;2023-09-08T15:36:37;31.90;99.90
12811;DHT22;6470;47.654;7.896;2023-09-08T15:39:03;31.90;99.90
12811;DHT22;6470;47.654;7.896;2023-09-08T15:41:29;32.30;99.90
12811;DHT22;6470;47.654;7.896;2023-09-08T15:43:55;31.30;99.90
12811;DHT22;6470;47.654;7.896;2023-09-08T15:46:21;32.70;99.90
12811;DHT22;6470;47.654;7.896;2023-09-08T15:48:47;31.30;99.90
12811;DHT22;6470;47.654;7.896;2023-09-08T15:51:13;29.50;99.90
12811;DHT22;6470;47.654;7.896;2023-09-08T15:53:39;31.70;99.90
12811;DHT22;6470;47.654;7.896;2023-09-08T15:56:07;31.90;99.90
12811;DHT22;6470;47.654;7.896;2023-09-08T15:58:33;32.00;99.90
12811;DHT22;6470;47.654;7.896;2023-09-08T16:03:24;31.00;99.90
12811;DHT22;6470;47.654;7.896;2023-09-08T16:05:50;30.70;99.90
12811;DHT22;6470;47.654;7.896;2023-09-08T16:08:16;30.80;99.90
12811;DHT22;6470;47.654;7.896;2023-09-08T16:10:42;31.70;99.90
12811;DHT22;6470;47.654;7.896;2023-09-08T16:13:07;31.00;99.90
12811;DHT22;6470;47.654;7.896;2023-09-08T16:15:33;31.20;99.90
12811;DHT22;6470;47.654;7.896;2023-09-08T16:17:59;31.30;99.90
12811;DHT22;6470;47.654;7.896;2023-09-08T16:25:17;30.70;99.90
12811;DHT22;6470;47.654;7.896;2023-09-08T16:27:43;30.40;99.90
12811;DHT22;6470;47.654;7.896;2023-09-08T16:30:11;31.20;99.90
12811;DHT22;6470;47.654;7.896;2023-09-08T16:32:36;30.30;99.90
12811;DHT22;6470;47.654;7.896;2023-09-08T16:35:03;30.10;99.90
12811;DHT22;6470;47.654;7.896;2023-09-08T16:37:29;30.10;99.90
12811;DHT22;6470;47.654;7.896;2023-09-08T16:39:54;29.70;99.90
12811;DHT22;6470;47.654;7.896;2023-09-08T16:42:20;30.20;99.90
12811;DHT22;6470;47.654;7.896;2023-09-08T16:47:13;28.80;99.90
12811;DHT22;6470;47.654;7.896;2023-09-08T16:49:39;28.80;99.90
12811;DHT22;6470;47.654;7.896;2023-09-08T16:52:05;28.40;99.90
12811;DHT22;6470;47.654;7.896;2023-09-08T16:54:31;28.30;99.90
12811;DHT22;6470;47.654;7.896;2023-09-08T16:59:24;26.50;99.90
12811;DHT22;6470;47.654;7.896;2023-09-08T17:01:50;25.80;99.90
12811;DHT22;6470;47.654;7.896;2023-09-08T17:04:15;25.80;99.90
12811;DHT22;6470;47.654;7.896;2023-09-08T17:06:41;27.10;99.90
12811;DHT22;6470;47.654;7.896;2023-09-08T17:09:13;26.50;99.90
12811;DHT22;6470;47.654;7.896;2023-09-08T17:11:40;26.30;99.90
12811;DHT22;6470;47.654;7.896;2023-09-08T17:16:32;26.70;99.90
12811;DHT22;6470;47.654;7.896;2023-09-08T17:18:58;25.80;99.90